Acme, Michigan
Current Conditions -  °F | °C
As of 10:53 AM on Thursday 23 Oct 2014 (Local Time) from KTVC Reporting Station
Broken Clouds Broken Clouds  
Wind Chill: 37°   Ceiling: 22000
Heat Index: 41°   Visibility: 10mi
Dew Point: 36°   Wind: 6mph
Humidity: 82%   Direction: NA
Pressure: 30.2"   Gusts: NA
Location:  44.77°N, 85.5°W
Report Text: KTVC 231453Z VRB05KT 10SM BKN220 05/02 A3020 RMK AO2 SLP233 I3000 T00500022 58006
Loading
Personal Weather Stations






























Interactive Weather Map
Tropical Storm Tracking
New forecast layout! Learn more

10-Day Weather Forecast

Advertisements
Track Severe Weather on mobile